createdAt,value
2018-01-13T00:01:21.537Z,97400.67
2018-01-13T00:02:57.923Z,97347.06
2018-01-13T00:04:34.742Z,97346.16
2018-01-13T00:06:11.192Z,97339.23
2018-01-13T00:07:48.394Z,97450.55
2018-01-13T00:09:24.828Z,97639.09
2018-01-13T00:11:01.265Z,97606.48
2018-01-13T00:12:38.428Z,97629.95
2018-01-13T00:14:14.961Z,97756.34
2018-01-13T00:15:51.579Z,97741.52
2018-01-13T00:17:29.271Z,97786.05
2018-01-13T00:19:05.735Z,97874.51
2018-01-13T00:20:43.620Z,97982.67
2018-01-13T00:22:20.096Z,97950.09
2018-01-13T00:23:58.711Z,97924.27
2018-01-13T00:25:37.088Z,97851.34
2018-01-13T00:27:13.674Z,97808.70
2018-01-13T00:28:50.674Z,97773.83
2018-01-13T00:30:28.173Z,97622.12
2018-01-13T00:32:05.180Z,97488.08
2018-01-13T00:33:42.796Z,97477.20
2018-01-13T00:35:19.514Z,97517.27
2018-01-13T00:36:56.600Z,97589.41
2018-01-13T00:38:33.048Z,97603.00
2018-01-13T00:40:11.368Z,97540.66
2018-01-13T00:41:48.764Z,97572.05
2018-01-13T00:43:25.402Z,97584.72
2018-01-13T00:45:03.638Z,97599.92
2018-01-13T00:46:40.142Z,97639.52
2018-01-13T00:48:16.740Z,97551.58
2018-01-13T00:49:55.583Z,97551.19
2018-01-13T00:51:32.114Z,97710.17
2018-01-13T00:53:08.578Z,97750.72
2018-01-13T00:54:45.040Z,97784.25
2018-01-13T00:56:22.684Z,97813.06
2018-01-13T00:57:59.107Z,97817.44
2018-01-13T00:59:35.544Z,97763.83
2018-01-13T01:01:11.934Z,97828.73
2018-01-13T01:02:48.715Z,97776.01
2018-01-13T01:06:01.245Z,97641.34
2018-01-13T01:07:37.714Z,97518.98
2018-01-13T01:09:14.456Z,97428.00
2018-01-13T01:10:50.955Z,97450.27
2018-01-13T01:12:27.308Z,97441.08
2018-01-13T01:14:03.676Z,97439.75
2018-01-13T01:15:40.511Z,97417.55
2018-01-13T01:17:17.072Z,97364.50
2018-01-13T01:18:54.325Z,97372.33
2018-01-13T01:20:31.525Z,97487.68
2018-01-13T01:22:08.347Z,97354.53
2018-01-13T01:23:45.957Z,97318.37
2018-01-13T01:25:22.371Z,97327.13
2018-01-13T01:26:58.765Z,97347.09
2018-01-13T01:28:35.614Z,97346.67
2018-01-13T01:30:14.372Z,97388.84
2018-01-13T01:31:50.784Z,97411.44
2018-01-13T01:33:27.202Z,97488.47
2018-01-13T01:35:04.024Z,97477.20
2018-01-13T01:36:41.432Z,97480.24
2018-01-13T01:38:17.843Z,97352.35
2018-01-13T01:39:54.256Z,97324.02
2018-01-13T01:41:30.991Z,97396.25
2018-01-13T01:43:07.366Z,97424.09
2018-01-13T01:44:43.760Z,97354.00
2018-01-13T01:46:20.177Z,97287.92
2018-01-13T01:47:57.616Z,97350.95
2018-01-13T01:49:34.551Z,97288.71
2018-01-13T01:51:11.800Z,97270.06
2018-01-13T01:52:48.203Z,97220.09
2018-01-13T01:54:25.879Z,97238.92
2018-01-13T01:56:02.265Z,97363.22
2018-01-13T01:57:38.743Z,97289.64
2018-01-13T01:59:15.047Z,97214.99
2018-01-13T02:00:52.638Z,97209.78
2018-01-13T02:02:29.232Z,97242.38
2018-01-13T02:04:06.420Z,97291.89
2018-01-13T02:05:43.586Z,97250.59
2018-01-13T02:07:21.252Z,97294.92
2018-01-13T02:08:57.715Z,97296.28
2018-01-13T02:10:33.997Z,97300.11
2018-01-13T02:12:10.347Z,97368.44
2018-01-13T02:13:47.296Z,97427.10
2018-01-13T02:15:23.680Z,97577.70
2018-01-13T02:17:00.043Z,97735.89
2018-01-13T02:18:36.458Z,97827.87
2018-01-13T02:20:14.112Z,97926.09
2018-01-13T02:21:50.567Z,97993.69
2018-01-13T02:23:27.081Z,98034.77
2018-01-13T02:25:03.520Z,98003.73
2018-01-13T02:26:40.302Z,98061.36
2018-01-13T02:28:16.718Z,98144.37
2018-01-13T02:29:53.176Z,98207.80
2018-01-13T02:31:29.801Z,98198.16
2018-01-13T02:33:06.834Z,98213.47
2018-01-13T02:34:43.374Z,98253.73
2018-01-13T02:36:19.846Z,98320.66
2018-01-13T02:37:56.373Z,98374.02
2018-01-13T02:39:33.225Z,98357.80
2018-01-13T02:41:09.723Z,98370.50
2018-01-13T02:42:46.170Z,98394.55
2018-01-13T02:44:22.826Z,98399.87
2018-01-13T02:45:59.859Z,98333.75
2018-01-13T02:47:36.401Z,98285.25
2018-01-13T02:49:13.043Z,98154.98
2018-01-13T02:50:49.674Z,98015.17
2018-01-13T02:52:26.729Z,97925.70
2018-01-13T02:54:03.193Z,97837.97
2018-01-13T02:55:39.858Z,97787.50
2018-01-13T02:57:16.389Z,97793.53
2018-01-13T02:58:53.352Z,97835.86
2018-01-13T03:00:29.881Z,97872.55
2018-01-13T03:02:06.425Z,97889.52
2018-01-13T03:05:22.358Z,98085.91
2018-01-13T03:06:58.757Z,98052.28
2018-01-13T03:08:35.084Z,98180.80
2018-01-13T03:10:11.521Z,98289.23
2018-01-13T03:11:48.347Z,98309.27
2018-01-13T03:13:24.813Z,98280.84
2018-01-13T03:15:02.054Z,98281.73
2018-01-13T03:16:38.347Z,98187.31
2018-01-13T03:18:15.082Z,98029.16
2018-01-13T03:19:51.395Z,97902.57
2018-01-13T03:21:28.635Z,97729.94
2018-01-13T03:23:04.906Z,97596.09
2018-01-13T03:24:41.667Z,97611.41
2018-01-13T03:26:18.045Z,97642.77
2018-01-13T03:27:54.425Z,97610.88
2018-01-13T03:29:30.727Z,97532.11
2018-01-13T03:31:08.339Z,97482.09
2018-01-13T03:32:45.557Z,97408.91
2018-01-13T03:34:21.861Z,97443.33
2018-01-13T03:35:58.274Z,97408.08
2018-01-13T03:37:35.161Z,97365.39
2018-01-13T03:39:11.492Z,97346.28
2018-01-13T03:40:47.942Z,97280.64
2018-01-13T03:42:24.350Z,97257.56
2018-01-13T03:44:01.129Z,97317.98
2018-01-13T03:45:37.578Z,97405.47
2018-01-13T03:47:13.889Z,97596.52
2018-01-13T03:48:50.470Z,97786.08
2018-01-13T03:50:27.320Z,97880.31
2018-01-13T03:52:03.901Z,97893.83
2018-01-13T03:53:41.246Z,97925.67
2018-01-13T03:55:17.719Z,97940.55
2018-01-13T03:56:54.478Z,97939.66
2018-01-13T03:58:30.869Z,97902.94
2018-01-13T04:00:07.157Z,97891.67
2018-01-13T04:01:43.520Z,97910.89
2018-01-13T04:03:20.337Z,97815.25
2018-01-13T04:04:56.855Z,97783.46
2018-01-13T04:06:33.958Z,97686.78
2018-01-13T04:08:11.790Z,97565.17
2018-01-13T04:09:49.000Z,97535.52
2018-01-13T04:11:27.999Z,97567.42
2018-01-13T04:13:04.333Z,97552.11
2018-01-13T04:14:40.760Z,97548.71
2018-01-13T04:16:19.698Z,97546.06
2018-01-13T04:17:56.440Z,97513.80
2018-01-13T04:19:35.468Z,97472.09
2018-01-13T04:21:11.771Z,97405.04
2018-01-13T04:22:49.337Z,97361.89
2018-01-13T04:24:26.389Z,97333.66
2018-01-13T04:26:02.821Z,97309.72
2018-01-13T04:27:39.214Z,97278.85
2018-01-13T04:29:17.156Z,97205.81
2018-01-13T04:30:54.761Z,97194.17
2018-01-13T04:32:34.754Z,97166.40
2018-01-13T04:34:11.623Z,97174.25
2018-01-13T04:35:48.500Z,97141.16
2018-01-13T04:37:26.187Z,97174.58
2018-01-13T04:39:04.696Z,97162.86
2018-01-13T04:40:41.336Z,97138.56
2018-01-13T04:42:21.032Z,97131.99
2018-01-13T04:43:58.625Z,97087.63
2018-01-13T04:45:36.429Z,97059.45
2018-01-13T04:47:12.747Z,97101.19
2018-01-13T04:48:49.250Z,97097.70
2018-01-13T04:50:26.103Z,97097.23
2018-01-13T04:52:04.568Z,97123.70
2018-01-13T04:53:41.240Z,97161.16
2018-01-13T04:55:19.642Z,97194.60
2018-01-13T04:56:55.908Z,97211.06
2018-01-13T04:58:32.213Z,97200.64
2018-01-13T05:00:08.606Z,97175.86
2018-01-13T05:01:46.064Z,97174.58
2018-01-13T05:03:22.465Z,97153.73
2018-01-13T05:04:58.824Z,97133.27
2018-01-13T05:06:35.139Z,97128.92
2018-01-13T05:08:11.956Z,97090.27
2018-01-13T05:09:48.302Z,97077.28
2018-01-13T05:11:24.670Z,97047.70
2018-01-13T05:13:00.946Z,97062.48
2018-01-13T05:14:37.754Z,97062.87
2018-01-13T05:16:14.123Z,97029.94
2018-01-13T05:17:50.399Z,97028.55
2018-01-13T05:19:26.668Z,97091.67
2018-01-13T05:21:02.957Z,97087.28
2018-01-13T05:22:40.058Z,97115.54
2018-01-13T05:24:16.411Z,97098.02
2018-01-13T05:25:52.778Z,97105.01
2018-01-13T05:27:29.606Z,97104.62
2018-01-13T05:29:05.877Z,97124.53
2018-01-13T05:30:42.236Z,97112.86
2018-01-13T05:32:18.470Z,97123.28
2018-01-13T05:33:56.008Z,97122.78
2018-01-13T05:35:32.264Z,97117.68
2018-01-13T05:37:09.041Z,97093.80
2018-01-13T05:38:46.142Z,97090.34
2018-01-13T05:40:22.807Z,97082.89
2018-01-13T05:41:59.049Z,97061.55
2018-01-13T05:43:35.412Z,97079.07
2018-01-13T05:45:11.651Z,97051.16
2018-01-13T05:46:48.359Z,97052.06
2018-01-13T05:48:24.615Z,97059.87
2018-01-13T05:50:01.045Z,97050.34
2018-01-13T05:51:37.411Z,97025.16
2018-01-13T05:53:14.242Z,96995.67
2018-01-13T05:54:50.534Z,96990.04
2018-01-13T05:56:26.916Z,96999.95
2018-01-13T05:58:03.243Z,97014.25
2018-01-13T05:59:41.886Z,97012.58
2018-01-13T06:01:18.347Z,97026.45
2018-01-13T06:02:54.845Z,97019.10
2018-01-13T06:04:31.216Z,97008.61
2018-01-13T06:06:08.211Z,97021.70
2018-01-13T06:07:44.476Z,97048.17
2018-01-13T06:09:21.505Z,97046.84
2018-01-13T06:10:58.294Z,97078.56
2018-01-13T06:12:34.591Z,97069.90
2018-01-13T06:14:11.471Z,97067.26
2018-01-13T06:15:47.771Z,97076.00
2018-01-13T06:17:24.569Z,97095.52
2018-01-13T06:19:00.884Z,97115.47
2018-01-13T06:20:38.509Z,97122.85
2018-01-13T06:22:14.813Z,97111.58
2018-01-13T06:23:52.475Z,97081.60
2018-01-13T06:25:28.846Z,97022.13
2018-01-13T06:27:05.129Z,97006.08
2018-01-13T06:28:42.176Z,97002.98
2018-01-13T06:30:21.353Z,96990.47
2018-01-13T06:31:57.877Z,96959.66
2018-01-13T06:33:34.422Z,96955.30
2018-01-13T06:35:10.759Z,96968.78
2018-01-13T06:36:48.318Z,96950.52
2018-01-13T06:38:24.645Z,96963.61
2018-01-13T06:40:01.199Z,96934.52
2018-01-13T06:41:38.282Z,96917.20
2018-01-13T06:43:15.127Z,96911.14
2018-01-13T06:44:52.149Z,96877.67
2018-01-13T06:46:28.561Z,96853.80
2018-01-13T06:48:05.638Z,96857.28
2018-01-13T06:49:44.220Z,96825.15
2018-01-13T06:51:20.540Z,96814.78
2018-01-13T06:52:56.751Z,96806.70
2018-01-13T06:54:35.991Z,96785.41
2018-01-13T06:56:12.895Z,96757.73
2018-01-13T06:57:50.980Z,96735.62
2018-01-13T06:59:27.529Z,96738.19
2018-01-13T07:01:04.294Z,96730.84
2018-01-13T07:02:41.215Z,96729.95
2018-01-13T07:04:17.427Z,96719.48
2018-01-13T07:05:53.718Z,96725.14
2018-01-13T07:07:30.104Z,96730.38
2018-01-13T07:09:07.273Z,96719.45
2018-01-13T07:10:43.698Z,96749.44
2018-01-13T07:12:20.424Z,96739.85
2018-01-13T07:13:56.893Z,96743.34
2018-01-13T07:15:33.834Z,96733.02
2018-01-13T07:17:10.246Z,96743.34
2018-01-13T07:18:46.698Z,96736.83
2018-01-13T07:20:22.999Z,96728.56
2018-01-13T07:21:59.597Z,96737.36
2018-01-13T07:23:36.610Z,96737.30
2018-01-13T07:25:13.401Z,96730.34
2018-01-13T07:26:50.161Z,96720.03
2018-01-13T07:28:26.846Z,96726.42
2018-01-13T07:30:03.266Z,96733.34
2018-01-13T07:31:39.782Z,96752.34
2018-01-13T07:33:16.016Z,96756.38
2018-01-13T07:36:31.541Z,96726.85
2018-01-13T07:38:08.100Z,96715.22
2018-01-13T07:39:44.741Z,96730.81
2018-01-13T07:41:21.622Z,96741.17
2018-01-13T07:42:58.345Z,96757.62
2018-01-13T07:44:35.100Z,96782.26
2018-01-13T07:46:11.804Z,96797.05
2018-01-13T07:47:48.505Z,96794.02
2018-01-13T07:49:26.566Z,96828.72
2018-01-13T07:51:03.199Z,96828.68
2018-01-13T07:52:39.538Z,96835.66
2018-01-13T07:54:16.288Z,96850.80
2018-01-13T07:55:52.560Z,96869.90
2018-01-13T07:57:29.675Z,96885.13
2018-01-13T07:59:06.049Z,96903.72
2018-01-13T08:00:42.899Z,96912.84
2018-01-13T08:02:19.245Z,96913.78
2018-01-13T08:03:56.483Z,96892.03
2018-01-13T08:05:33.348Z,96873.32
2018-01-13T08:07:11.260Z,96857.28
2018-01-13T08:08:47.798Z,96867.69
2018-01-13T08:10:24.293Z,96866.48
2018-01-13T08:12:00.627Z,96870.83
2018-01-13T08:13:37.974Z,96849.98
2018-01-13T08:15:16.722Z,96847.38
2018-01-13T08:16:53.368Z,96831.28
2018-01-13T08:18:29.846Z,96804.95
2018-01-13T08:20:06.966Z,96807.56
2018-01-13T08:21:43.548Z,96799.25
2018-01-13T08:23:20.038Z,96803.64
2018-01-13T08:24:56.657Z,96807.56
2018-01-13T08:26:33.691Z,96819.24
2018-01-13T08:28:10.921Z,96817.03
2018-01-13T08:29:47.271Z,96793.20
2018-01-13T08:31:23.888Z,96797.97
2018-01-13T08:33:00.722Z,96801.00
2018-01-13T08:34:37.008Z,96806.63
2018-01-13T08:36:13.378Z,96797.55
2018-01-13T08:37:50.903Z,96793.24
2018-01-13T08:39:27.662Z,96791.53
2018-01-13T08:41:04.129Z,96800.61
2018-01-13T08:42:40.520Z,96793.16
2018-01-13T08:44:16.937Z,96788.43
2018-01-13T08:45:54.566Z,96780.23
2018-01-13T08:47:30.919Z,96777.56
2018-01-13T08:49:07.346Z,96780.20
2018-01-13T08:50:43.797Z,96754.59
2018-01-13T08:52:21.478Z,96753.34
2018-01-13T08:53:57.778Z,96755.95
2018-01-13T08:55:34.296Z,96748.62
2018-01-13T08:57:11.163Z,96744.66
2018-01-13T08:58:48.810Z,96748.19
2018-01-13T09:00:26.062Z,96743.38
2018-01-13T09:02:03.417Z,96746.45
2018-01-13T09:03:40.373Z,96740.43
2018-01-13T09:05:17.097Z,96747.37
2018-01-13T09:06:53.470Z,96750.75
2018-01-13T09:08:30.133Z,96753.81
2018-01-13T09:10:07.236Z,96723.91
2018-01-13T09:11:44.142Z,96730.89
2018-01-13T09:13:20.518Z,96729.61
2018-01-13T09:14:56.985Z,96726.12
2018-01-13T09:16:33.324Z,96743.38
2018-01-13T09:18:10.272Z,96759.48
2018-01-13T09:19:46.816Z,96734.34
2018-01-13T09:21:23.607Z,96737.36
2018-01-13T09:23:00.202Z,96759.91
2018-01-13T09:24:36.956Z,96740.00
2018-01-13T09:26:13.380Z,96713.97
2018-01-13T09:27:49.899Z,96704.39
2018-01-13T09:29:26.344Z,96716.54
2018-01-13T09:31:02.757Z,96766.73
2018-01-13T09:32:39.944Z,96812.34
2018-01-13T09:34:16.455Z,96875.22
2018-01-13T09:35:55.539Z,96887.30
2018-01-13T09:37:32.493Z,96794.13
2018-01-13T09:39:08.959Z,96773.38
2018-01-13T09:40:46.770Z,96778.11
2018-01-13T09:42:23.974Z,96825.80
2018-01-13T09:44:00.746Z,96864.86
2018-01-13T09:45:37.306Z,96872.16
2018-01-13T09:47:13.674Z,96773.30
2018-01-13T09:48:50.938Z,96811.09
2018-01-13T09:50:28.573Z,96936.77
2018-01-13T09:52:05.025Z,96898.20
2018-01-13T09:53:41.525Z,96843.50
2018-01-13T09:55:19.147Z,97034.41
2018-01-13T09:56:55.839Z,97132.03
2018-01-13T09:58:32.180Z,96893.43
2018-01-13T10:00:08.981Z,96718.71
2018-01-13T10:01:45.606Z,96563.47
2018-01-13T10:03:23.114Z,96509.38
2018-01-13T10:04:59.406Z,96515.00
2018-01-13T10:06:35.847Z,96545.22
2018-01-13T10:08:12.577Z,96529.17
2018-01-13T10:09:49.758Z,96542.59
2018-01-13T10:11:26.209Z,96578.58
2018-01-13T10:13:02.672Z,96600.59
2018-01-13T10:14:39.999Z,96621.45
2018-01-13T10:16:17.038Z,96624.44
2018-01-13T10:17:53.436Z,96567.66
2018-01-13T10:19:29.803Z,96571.22
2018-01-13T10:21:06.160Z,96588.47
2018-01-13T10:22:42.764Z,96598.47
2018-01-13T10:24:19.173Z,96642.63
2018-01-13T10:25:55.946Z,96647.35
2018-01-13T10:27:32.589Z,96730.89
2018-01-13T10:29:10.149Z,96805.89
2018-01-13T10:30:46.636Z,96780.78
2018-01-13T10:32:23.022Z,96737.41
2018-01-13T10:33:59.502Z,96755.22
2018-01-13T10:35:36.207Z,96734.38
2018-01-13T10:37:12.744Z,96695.01
2018-01-13T10:38:49.255Z,96656.42
2018-01-13T10:40:27.247Z,96646.92
2018-01-13T10:42:04.092Z,96623.55
2018-01-13T10:43:41.144Z,96582.89
2018-01-13T10:45:18.797Z,96586.77
2018-01-13T10:46:55.326Z,96600.59
2018-01-13T10:48:32.558Z,96623.08
2018-01-13T10:50:08.860Z,96642.16
2018-01-13T10:51:46.161Z,96703.20
2018-01-13T10:53:22.599Z,96689.30
2018-01-13T10:55:00.242Z,96707.53
2018-01-13T10:56:36.789Z,96764.72
2018-01-13T10:58:14.125Z,96821.45
2018-01-13T10:59:50.524Z,96847.85
2018-01-13T11:01:38.385Z,96834.06
2018-01-13T11:03:14.961Z,96788.51
2018-01-13T11:04:51.577Z,96763.44
2018-01-13T11:06:28.046Z,96818.47
2018-01-13T11:08:05.016Z,96829.76
2018-01-13T11:09:41.407Z,96829.76
2018-01-13T11:11:18.056Z,96916.38
2018-01-13T11:12:54.696Z,97021.46
2018-01-13T11:14:31.703Z,97082.56
2018-01-13T11:16:08.714Z,97059.59
2018-01-13T11:17:46.226Z,97058.70
2018-01-13T11:19:22.668Z,97036.12
2018-01-13T11:21:00.583Z,96994.11
2018-01-13T11:22:37.004Z,96935.06
2018-01-13T11:24:13.439Z,96959.84
2018-01-13T11:25:50.004Z,97038.83
2018-01-13T11:27:26.351Z,96999.70
2018-01-13T11:29:02.938Z,96968.50
2018-01-13T11:30:39.710Z,96862.17
2018-01-13T11:32:16.145Z,96847.42
2018-01-13T11:33:53.856Z,96931.18
2018-01-13T11:35:31.102Z,96971.96
2018-01-13T11:37:07.496Z,96982.34
2018-01-13T11:38:44.797Z,96903.38
2018-01-13T11:40:22.075Z,96886.09
2018-01-13T11:41:58.609Z,96923.84
2018-01-13T11:43:35.228Z,96958.14
2018-01-13T11:45:13.487Z,96949.94
2018-01-13T11:46:52.208Z,96984.98
2018-01-13T11:48:29.764Z,97006.23
2018-01-13T11:50:06.845Z,96910.79
2018-01-13T11:51:43.455Z,96913.86
2018-01-13T11:53:20.694Z,96932.14
2018-01-13T11:54:58.047Z,96911.22
2018-01-13T11:56:34.860Z,96898.71
2018-01-13T11:58:11.194Z,96912.97
2018-01-13T11:59:48.176Z,96967.65
2018-01-13T12:01:24.861Z,97092.67
2018-01-13T12:03:01.242Z,97217.31
2018-01-13T12:04:37.625Z,97413.37
2018-01-13T12:06:14.637Z,97553.11
2018-01-13T12:07:51.041Z,97557.80
2018-01-13T12:18:04.591Z,97065.80
2018-01-13T12:19:42.013Z,97050.07
2018-01-13T12:21:18.486Z,97044.90
2018-01-13T12:22:54.878Z,97044.83
2018-01-13T12:24:31.572Z,97089.64
2018-01-13T12:26:11.479Z,97133.07
2018-01-13T12:27:47.960Z,97152.16
2018-01-13T12:29:26.250Z,97134.35
2018-01-13T12:31:03.697Z,97096.09
2018-01-13T12:32:39.986Z,97019.25
2018-01-13T12:34:17.126Z,97024.92
2018-01-13T12:35:53.575Z,97027.87
2018-01-13T12:37:30.473Z,97016.69
2018-01-13T12:39:07.428Z,97016.25
2018-01-13T12:40:43.884Z,97026.20
2018-01-13T12:42:20.401Z,97067.95
2018-01-13T12:43:58.265Z,97148.70
2018-01-13T12:45:44.455Z,97095.67
2018-01-13T12:47:21.411Z,97187.79
2018-01-13T12:48:57.858Z,97370.73
2018-01-13T12:50:34.774Z,97530.89
2018-01-13T12:52:11.963Z,97605.29
2018-01-13T12:53:49.235Z,97607.51
2018-01-13T12:55:25.852Z,97446.88
2018-01-13T12:57:05.264Z,97366.00
2018-01-13T12:58:42.056Z,97365.97
2018-01-13T13:00:18.478Z,97363.33
2018-01-13T13:01:57.688Z,97338.63
2018-01-13T13:03:34.598Z,97342.95
2018-01-13T13:05:11.522Z,97507.42
2018-01-13T13:06:48.151Z,97663.75
2018-01-13T13:08:25.458Z,97598.42
2018-01-13T13:10:03.232Z,97702.50
2018-01-13T13:13:22.479Z,97461.71
2018-01-13T13:14:59.211Z,97454.78
2018-01-13T13:16:36.979Z,97536.52
2018-01-13T13:18:13.491Z,97627.56
2018-01-13T13:19:49.898Z,97684.66
2018-01-13T13:21:26.330Z,97742.61
2018-01-13T13:23:04.513Z,97681.66
2018-01-13T13:24:41.360Z,97433.42
2018-01-13T13:26:19.022Z,97356.47
2018-01-13T13:27:55.354Z,97422.09
2018-01-13T13:29:32.273Z,97351.64
2018-01-13T13:31:08.614Z,97281.22
2018-01-13T13:32:44.960Z,97192.14
2018-01-13T13:34:22.220Z,97184.83
2018-01-13T13:35:59.999Z,97202.14
2018-01-13T13:37:36.471Z,97233.39
2018-01-13T13:39:13.723Z,97201.25
2018-01-13T13:40:50.171Z,97171.26
2018-01-13T13:42:26.600Z,97142.13
2018-01-13T13:44:03.074Z,97125.18
2018-01-13T13:45:39.773Z,97111.72
2018-01-13T13:47:16.567Z,97112.62
2018-01-13T13:48:53.790Z,97078.36
2018-01-13T13:50:31.198Z,97049.22
2018-01-13T13:52:08.074Z,97024.46
2018-01-13T13:53:44.622Z,97018.43
2018-01-13T13:55:22.240Z,97022.78
2018-01-13T13:56:59.464Z,97038.33
2018-01-13T13:58:36.692Z,97023.99
2018-01-13T14:00:13.464Z,97026.63
2018-01-13T14:01:57.562Z,97007.13
2018-01-13T14:03:34.497Z,96986.69
2018-01-13T14:05:11.249Z,96980.16
2018-01-13T14:06:47.845Z,96976.70
2018-01-13T14:08:24.726Z,96951.50
2018-01-13T14:10:01.950Z,96944.23
2018-01-13T14:11:38.375Z,96948.86
2018-01-13T14:13:15.017Z,96964.12
2018-01-13T14:14:51.798Z,96980.16
2018-01-13T14:16:29.473Z,97000.09
2018-01-13T14:18:05.978Z,97014.90
2018-01-13T14:19:42.560Z,97028.30
2018-01-13T14:21:20.452Z,97086.53
2018-01-13T14:22:56.795Z,97132.03
2018-01-13T14:24:33.243Z,97164.65
2018-01-13T14:26:12.873Z,97297.18
2018-01-13T14:27:49.379Z,97353.31
2018-01-13T14:29:26.823Z,97365.50
2018-01-13T14:31:04.132Z,97320.69
2018-01-13T14:32:40.794Z,97273.25
2018-01-13T14:34:18.238Z,97254.17
2018-01-13T14:35:55.120Z,97223.34
2018-01-13T14:37:31.635Z,97208.10
2018-01-13T14:39:14.861Z,97176.50
2018-01-13T14:40:51.821Z,97196.85
2018-01-13T14:42:28.491Z,97192.46
2018-01-13T14:44:07.827Z,97152.13
2018-01-13T14:45:46.679Z,97136.38
2018-01-13T14:47:27.287Z,97095.59
2018-01-13T14:49:05.035Z,97059.48
2018-01-13T14:50:42.788Z,97054.34
2018-01-13T14:52:19.475Z,97085.17
2018-01-13T14:53:56.704Z,97129.39
2018-01-13T14:55:33.491Z,97157.33
2018-01-13T14:57:11.410Z,97129.45
2018-01-13T14:58:48.173Z,97100.84
2018-01-13T15:00:27.286Z,97057.38
2018-01-13T15:02:04.714Z,97041.22
2018-01-13T15:03:41.197Z,97047.82
2018-01-13T15:05:33.537Z,97013.04
2018-01-13T15:07:11.058Z,96981.88
2018-01-13T15:08:48.137Z,96960.66
2018-01-13T15:10:24.655Z,96946.64
2018-01-13T15:12:02.687Z,96952.35
2018-01-13T15:13:40.573Z,96942.41
2018-01-13T15:15:19.383Z,96933.23
2018-01-13T15:16:56.229Z,96941.08
2018-01-13T15:18:32.827Z,96948.47
2018-01-13T15:20:11.441Z,96961.91
2018-01-13T15:21:47.924Z,96965.83
2018-01-13T15:23:24.422Z,96973.13
2018-01-13T15:25:01.043Z,96951.88
2018-01-13T15:26:39.488Z,96950.60
2018-01-13T15:28:22.170Z,97033.94
2018-01-13T15:29:59.323Z,96935.88
2018-01-13T15:31:38.791Z,96852.94
2018-01-13T15:33:16.437Z,96869.55
2018-01-13T15:34:53.135Z,96842.61
2018-01-13T15:38:12.876Z,96788.58
2018-01-13T15:39:51.366Z,96786.30
2018-01-13T15:41:29.152Z,96810.05
2018-01-13T15:43:06.547Z,96803.64
2018-01-13T15:44:43.128Z,96791.06
2018-01-13T15:46:23.350Z,96801.89
2018-01-13T15:48:05.872Z,96787.53
2018-01-13T15:49:44.241Z,96775.47
2018-01-13T15:51:21.165Z,96763.72
2018-01-13T15:53:00.221Z,96751.25
2018-01-13T15:54:36.890Z,96752.88
2018-01-13T15:56:14.355Z,96734.73
2018-01-13T15:57:53.053Z,96736.36
2018-01-13T15:59:30.437Z,96759.80
2018-01-13T16:01:08.318Z,96743.30
2018-01-13T16:02:45.931Z,96738.61
2018-01-13T16:04:22.528Z,96760.18
2018-01-13T16:05:59.530Z,96767.63
2018-01-13T16:07:37.221Z,96774.11
2018-01-13T16:09:14.072Z,96812.26
2018-01-13T16:10:51.511Z,96831.23
2018-01-13T16:12:30.731Z,96851.66
2018-01-13T16:14:07.352Z,96855.19
2018-01-13T16:15:45.117Z,96894.20
2018-01-13T16:17:22.069Z,96880.27
2018-01-13T16:19:00.184Z,96862.95
2018-01-13T16:20:36.775Z,96852.09
2018-01-13T16:22:14.706Z,96818.35
2018-01-13T16:23:56.434Z,96824.83
2018-01-13T16:25:34.001Z,96809.70
2018-01-13T16:27:11.454Z,96810.59
2018-01-13T16:28:48.925Z,96797.08
2018-01-13T16:30:25.599Z,96778.49
2018-01-13T16:32:02.783Z,96787.11
2018-01-13T16:33:40.451Z,96785.36
2018-01-13T16:35:17.863Z,96807.48
2018-01-13T16:36:56.140Z,96791.38
2018-01-13T16:38:34.409Z,96802.28
2018-01-13T16:40:11.193Z,96823.52
2018-01-13T16:41:48.127Z,96832.17
2018-01-13T16:43:24.649Z,96783.66
2018-01-13T16:45:03.905Z,96772.83
2018-01-13T16:46:41.453Z,96765.38
2018-01-13T16:48:17.927Z,96772.33
2018-01-13T16:49:55.126Z,96777.64
2018-01-13T16:51:33.224Z,96788.78
2018-01-13T16:53:12.262Z,96821.73
2018-01-13T16:54:49.367Z,96807.91
2018-01-13T16:56:27.523Z,96826.04
2018-01-13T16:58:04.439Z,96872.43
2018-01-13T16:59:40.884Z,96911.53
2018-01-13T17:01:19.040Z,96915.45
2018-01-13T17:02:58.028Z,96904.50
2018-01-13T17:04:34.970Z,96945.36
2018-01-13T17:06:12.371Z,97000.84
2018-01-13T17:07:50.074Z,96985.57
2018-01-13T17:09:26.731Z,97029.94
2018-01-13T17:11:05.608Z,97074.17
2018-01-13T17:12:42.309Z,97154.51
2018-01-13T17:14:18.844Z,97127.13
2018-01-13T17:15:55.462Z,97088.48
2018-01-13T17:17:31.980Z,97020.34
2018-01-13T17:19:09.364Z,96946.17
2018-01-13T17:20:45.820Z,96902.83
2018-01-13T17:22:22.242Z,96870.22
2018-01-13T17:23:59.883Z,96858.56
2018-01-13T17:25:36.425Z,96839.82
2018-01-13T17:27:14.101Z,96852.13
2018-01-13T17:28:51.038Z,96858.14
2018-01-13T17:30:27.915Z,96902.37
2018-01-13T17:32:04.562Z,96896.27
2018-01-13T17:33:42.072Z,96888.97
2018-01-13T17:35:19.431Z,96896.42
2018-01-13T17:36:58.802Z,96914.59
2018-01-13T17:38:36.114Z,96856.36
2018-01-13T17:40:13.437Z,96813.84
2018-01-13T17:41:50.614Z,96746.33
2018-01-13T17:43:29.511Z,96700.83
2018-01-13T17:45:07.414Z,96729.80
2018-01-13T17:46:45.330Z,96684.27
2018-01-13T17:48:22.217Z,96637.58
2018-01-13T17:49:59.187Z,96576.56
2018-01-13T17:51:36.104Z,96548.51
2018-01-13T17:53:12.756Z,96580.95
2018-01-13T17:54:49.509Z,96570.55
2018-01-13T17:56:26.579Z,96492.25
2018-01-13T17:58:03.912Z,96456.73
2018-01-13T17:59:40.432Z,96455.50
2018-01-13T18:01:17.303Z,96447.75
2018-01-13T18:02:53.860Z,96484.52
2018-01-13T18:04:31.081Z,96521.66
2018-01-13T18:06:09.022Z,96495.70
2018-01-13T18:07:45.598Z,96478.94
2018-01-13T18:09:22.773Z,96437.30
2018-01-13T18:11:04.749Z,96367.66
2018-01-13T18:12:41.433Z,96394.48
2018-01-13T18:14:19.740Z,96398.38
2018-01-13T18:16:00.856Z,96427.00
2018-01-13T18:17:39.166Z,96422.62
2018-01-13T18:19:16.985Z,96406.20
2018-01-13T18:20:55.046Z,96395.80
2018-01-13T18:22:32.514Z,96376.36
2018-01-13T18:24:09.985Z,96376.40
2018-01-13T18:25:49.066Z,96411.36
2018-01-13T18:27:25.898Z,96375.47
2018-01-13T18:29:03.647Z,96363.01
2018-01-13T18:30:41.099Z,96345.24
2018-01-13T18:32:17.793Z,96343.89
2018-01-13T18:33:54.314Z,96279.03
2018-01-13T18:35:32.917Z,96288.67
2018-01-13T18:37:10.645Z,96368.66
2018-01-13T18:38:47.998Z,96364.63
2018-01-13T18:40:26.098Z,96372.02
2018-01-13T18:42:04.073Z,96400.17
2018-01-13T18:45:26.917Z,96481.84
2018-01-13T18:47:04.418Z,96465.37
2018-01-13T18:48:41.587Z,96460.70
2018-01-13T18:50:19.528Z,96436.84
2018-01-13T18:51:58.373Z,96403.14
2018-01-13T18:53:37.182Z,96471.03
2018-01-13T18:55:22.999Z,96515.53
2018-01-13T18:57:01.740Z,96529.37
2018-01-13T18:58:38.642Z,96519.88
2018-01-13T19:00:17.167Z,96474.36
2018-01-13T19:01:54.700Z,96466.23
2018-01-13T19:03:32.499Z,96460.57
2018-01-13T19:05:10.729Z,96507.88
2018-01-13T19:06:49.140Z,96488.27
2018-01-13T19:08:27.681Z,96454.06
2018-01-13T19:10:06.229Z,96428.08
2018-01-13T19:11:45.461Z,96419.05
2018-01-13T19:13:24.281Z,96407.02
2018-01-13T19:15:07.670Z,96425.98
2018-01-13T19:16:50.014Z,96456.23
2018-01-13T19:18:29.538Z,96458.36
2018-01-13T19:20:06.633Z,96439.81